createdAt,value
2023-02-09T00:00:06.864Z,-3.64
2023-02-09T00:03:15.478Z,-3.68
2023-02-09T00:06:23.767Z,-3.72
2023-02-09T00:09:31.697Z,-3.75
2023-02-09T00:12:40.051Z,-3.76
2023-02-09T00:15:47.718Z,-3.81
2023-02-09T00:18:55.705Z,-3.84
2023-02-09T00:22:03.736Z,-3.86
2023-02-09T00:25:11.734Z,-3.86
2023-02-09T00:28:19.786Z,-3.87
2023-02-09T00:31:28.174Z,-3.86
2023-02-09T00:34:36.096Z,-3.90
2023-02-09T00:37:43.925Z,-3.93
2023-02-09T00:40:52.125Z,-3.98
2023-02-09T00:44:00.678Z,-4.02
2023-02-09T00:47:08.707Z,-4.04
2023-02-09T00:50:16.685Z,-4.05
2023-02-09T00:53:25.188Z,-4.08
2023-02-09T00:56:32.816Z,-4.07
2023-02-09T00:59:41.316Z,-4.14
2023-02-09T01:02:49.836Z,-4.18
2023-02-09T01:05:57.498Z,-4.11
2023-02-09T01:09:05.914Z,-4.05
2023-02-09T01:12:14.157Z,-4.01
2023-02-09T01:15:22.286Z,-4.09
2023-02-09T01:18:30.491Z,-4.12
2023-02-09T01:21:38.822Z,-4.23
2023-02-09T01:24:46.736Z,-4.33
2023-02-09T01:27:54.787Z,-4.33
2023-02-09T01:31:02.963Z,-4.36
2023-02-09T01:34:11.635Z,-4.40
2023-02-09T01:37:18.918Z,-4.50
2023-02-09T01:40:26.229Z,-4.58
2023-02-09T01:43:34.038Z,-4.61
2023-02-09T01:46:41.424Z,-4.69
2023-02-09T01:49:48.830Z,-4.79
2023-02-09T01:52:56.187Z,-4.82
2023-02-09T01:56:03.545Z,-4.93
2023-02-09T01:59:11.176Z,-4.95
2023-02-09T02:02:18.755Z,-4.97
2023-02-09T02:05:25.583Z,-4.97
2023-02-09T02:08:33.286Z,-5.03
2023-02-09T02:11:40.600Z,-5.07
2023-02-09T02:14:48.029Z,-5.12
2023-02-09T02:17:55.421Z,-5.20
2023-02-09T02:21:02.806Z,-5.22
2023-02-09T02:24:10.256Z,-5.20
2023-02-09T02:27:17.946Z,-5.20
2023-02-09T02:30:24.838Z,-5.22
2023-02-09T02:33:32.798Z,-5.23
2023-02-09T02:36:39.751Z,-5.27
2023-02-09T02:39:47.559Z,-5.31
2023-02-09T02:42:54.798Z,-5.31
2023-02-09T02:46:02.038Z,-5.34
2023-02-09T02:49:09.322Z,-5.34
2023-02-09T02:52:16.988Z,-5.44
2023-02-09T02:55:24.278Z,-5.47
2023-02-09T02:58:31.956Z,-5.47
2023-02-09T03:01:39.482Z,-5.47
2023-02-09T03:04:46.860Z,-5.47
2023-02-09T03:07:54.740Z,-5.51
2023-02-09T03:11:01.641Z,-5.58
2023-02-09T03:14:09.409Z,-5.59
2023-02-09T03:17:16.726Z,-5.61
2023-02-09T03:20:24.268Z,-5.69
2023-02-09T03:23:31.518Z,-5.74
2023-02-09T03:26:38.768Z,-5.73
2023-02-09T03:29:46.252Z,-5.76
2023-02-09T03:32:54.017Z,-5.83
2023-02-09T03:36:01.196Z,-5.83
2023-02-09T03:39:09.174Z,-5.87
2023-02-09T03:42:16.621Z,-5.84
2023-02-09T03:45:24.102Z,-5.82
2023-02-09T03:48:31.201Z,-5.72
2023-02-09T03:51:38.524Z,-5.67
2023-02-09T03:54:45.872Z,-5.58
2023-02-09T03:57:53.641Z,-5.52
2023-02-09T04:01:00.596Z,-5.55
2023-02-09T04:04:08.480Z,-5.62
2023-02-09T04:07:15.623Z,-5.76
2023-02-09T04:10:23.890Z,-5.88
2023-02-09T04:13:31.290Z,-5.95
2023-02-09T04:16:38.916Z,-5.98
2023-02-09T04:19:46.338Z,-5.92
2023-02-09T04:22:53.754Z,-5.87
2023-02-09T04:26:00.924Z,-5.76
2023-02-09T04:29:08.729Z,-5.69
2023-02-09T04:32:15.660Z,-5.52
2023-02-09T04:35:24.541Z,-5.37
2023-02-09T04:38:31.361Z,-5.33
2023-02-09T04:41:39.237Z,-5.45
2023-02-09T04:44:46.947Z,-5.59
2023-02-09T04:47:54.307Z,-5.58
2023-02-09T04:51:01.601Z,-5.52
2023-02-09T04:54:09.749Z,-5.45
2023-02-09T04:57:16.651Z,-5.45
2023-02-09T05:00:24.380Z,-5.44
2023-02-09T05:03:31.485Z,-5.41
2023-02-09T05:06:39.040Z,-5.54
2023-02-09T05:09:46.277Z,-5.55
2023-02-09T05:12:53.660Z,-5.61
2023-02-09T05:16:00.843Z,-5.70
2023-02-09T05:19:07.793Z,-5.73
2023-02-09T05:22:15.286Z,-5.76
2023-02-09T05:25:23.138Z,-5.76
2023-02-09T05:28:30.158Z,-5.74
2023-02-09T05:31:37.964Z,-5.80
2023-02-09T05:34:45.253Z,-5.79
2023-02-09T05:37:52.927Z,-5.74
2023-02-09T05:41:00.293Z,-5.70
2023-02-09T05:44:07.790Z,-5.70
2023-02-09T05:47:15.113Z,-5.76
2023-02-09T05:50:22.760Z,-5.80
2023-02-09T05:53:29.516Z,-5.79
2023-02-09T05:56:37.180Z,-5.76
2023-02-09T05:59:44.206Z,-5.77
2023-02-09T06:02:52.612Z,-5.77
2023-02-09T06:06:00.202Z,-5.73
2023-02-09T06:09:07.664Z,-5.80
2023-02-09T06:12:14.997Z,-5.82
2023-02-09T06:15:22.797Z,-5.83
2023-02-09T06:18:29.738Z,-5.88
2023-02-09T06:21:37.463Z,-5.95
2023-02-09T06:24:44.299Z,-6.06
2023-02-09T06:27:51.992Z,-6.05
2023-02-09T06:30:59.382Z,-6.01
2023-02-09T06:34:06.956Z,-6.01
2023-02-09T06:37:14.279Z,-5.95
2023-02-09T06:40:21.682Z,-5.97
2023-02-09T06:43:29.308Z,-5.97
2023-02-09T06:46:37.010Z,-5.98
2023-02-09T06:49:44.072Z,-5.90
2023-02-09T06:52:51.977Z,-5.77
2023-02-09T06:55:59.516Z,-5.77
2023-02-09T06:59:06.994Z,-5.77
2023-02-09T07:02:14.537Z,-5.76
2023-02-09T07:05:22.181Z,-5.72
2023-02-09T07:08:29.867Z,-5.65
2023-02-09T07:11:37.977Z,-5.58
2023-02-09T07:14:45.204Z,-5.44
2023-02-09T07:17:53.394Z,-5.25
2023-02-09T07:21:00.834Z,-5.12
2023-02-09T07:24:08.569Z,-5.04
2023-02-09T07:27:16.314Z,-4.98
2023-02-09T07:30:23.768Z,-4.86
2023-02-09T07:33:31.328Z,-4.77
2023-02-09T07:36:39.195Z,-4.66
2023-02-09T07:39:46.563Z,-4.58
2023-02-09T07:42:54.672Z,-4.48
2023-02-09T07:46:02.372Z,-4.36
2023-02-09T07:49:09.885Z,-4.25
2023-02-09T07:52:17.842Z,-4.08
2023-02-09T07:55:25.375Z,-3.93
2023-02-09T07:58:32.834Z,-3.81
2023-02-09T08:01:41.033Z,-3.67
2023-02-09T08:04:48.011Z,-3.51
2023-02-09T08:07:56.224Z,-3.36
2023-02-09T08:11:03.495Z,-3.23
2023-02-09T08:14:11.070Z,-3.10
2023-02-09T08:17:18.486Z,-3.00
2023-02-09T08:20:25.886Z,-2.93
2023-02-09T08:23:33.179Z,-2.89
2023-02-09T08:26:41.054Z,-2.78
2023-02-09T08:29:49.113Z,-2.66
2023-02-09T08:32:57.053Z,-2.57
2023-02-09T08:36:04.511Z,-2.43
2023-02-09T08:39:12.013Z,-2.39
2023-02-09T08:42:19.388Z,-2.33
2023-02-09T08:45:27.166Z,-2.14
2023-02-09T08:48:35.821Z,-2.08
2023-02-09T08:51:43.643Z,-1.95
2023-02-09T08:54:50.554Z,-1.82
2023-02-09T08:57:58.381Z,-1.66
2023-02-09T09:01:06.005Z,-1.48
2023-02-09T09:04:13.550Z,-1.23
2023-02-09T09:07:21.068Z,-0.80
2023-02-09T09:10:28.503Z,-0.42
2023-02-09T09:13:35.925Z,-0.11
2023-02-09T09:16:43.686Z,0.12
2023-02-09T09:19:50.897Z,0.27
2023-02-09T09:22:58.978Z,0.36
2023-02-09T09:26:06.627Z,0.46
2023-02-09T09:29:14.164Z,0.67
2023-02-09T09:32:21.793Z,0.80
2023-02-09T09:35:29.459Z,0.90
2023-02-09T09:38:36.868Z,1.06
2023-02-09T09:41:44.705Z,1.18
2023-02-09T09:44:52.587Z,1.26
2023-02-09T09:47:59.474Z,1.32
2023-02-09T09:51:07.150Z,1.43
2023-02-09T09:54:14.738Z,1.51
2023-02-09T09:57:21.862Z,1.52
2023-02-09T10:00:29.468Z,1.61
2023-02-09T10:03:36.872Z,1.71
2023-02-09T10:06:44.919Z,1.73
2023-02-09T10:09:52.206Z,1.78
2023-02-09T10:12:59.390Z,1.82
2023-02-09T10:16:07.574Z,1.90
2023-02-09T10:19:14.619Z,1.99
2023-02-09T10:22:22.044Z,2.08
2023-02-09T10:25:29.745Z,2.09
2023-02-09T10:28:36.806Z,2.15
2023-02-09T10:31:44.677Z,2.06
2023-02-09T10:34:52.127Z,2.09
2023-02-09T10:37:59.574Z,2.10
2023-02-09T10:41:07.851Z,2.09
2023-02-09T10:44:15.460Z,2.09
2023-02-09T10:47:22.767Z,2.08
2023-02-09T10:50:30.458Z,2.08
2023-02-09T10:53:37.454Z,2.09
2023-02-09T10:56:45.058Z,2.13
2023-02-09T10:59:52.698Z,2.19
2023-02-09T11:02:59.696Z,2.26
2023-02-09T11:06:07.682Z,2.30
2023-02-09T11:09:14.809Z,2.34
2023-02-09T11:12:22.144Z,2.38
2023-02-09T11:15:30.082Z,2.48
2023-02-09T11:18:37.338Z,2.58
2023-02-09T11:21:44.689Z,2.67
2023-02-09T11:24:52.087Z,2.79
2023-02-09T11:27:59.396Z,2.79
2023-02-09T11:31:06.848Z,2.81
2023-02-09T11:34:14.376Z,2.76
2023-02-09T11:37:21.932Z,2.79
2023-02-09T11:40:29.231Z,2.84
2023-02-09T11:43:37.033Z,2.89
2023-02-09T11:46:44.829Z,2.97
2023-02-09T11:49:52.524Z,2.95
2023-02-09T11:53:00.145Z,3.03
2023-02-09T11:56:07.327Z,3.09
2023-02-09T11:59:15.440Z,3.15
2023-02-09T12:02:23.942Z,3.24
2023-02-09T12:05:30.990Z,3.21
2023-02-09T12:08:38.779Z,3.23
2023-02-09T12:11:46.191Z,3.21
2023-02-09T12:14:53.497Z,3.16
2023-02-09T12:18:01.288Z,3.10
2023-02-09T12:21:08.571Z,3.06
2023-02-09T12:24:16.080Z,3.05
2023-02-09T12:27:22.930Z,3.09
2023-02-09T12:30:31.067Z,3.10
2023-02-09T12:33:38.332Z,3.20
2023-02-09T12:36:45.617Z,3.27
2023-02-09T12:39:59.975Z,3.33
2023-02-09T12:42:56.560Z,3.30
2023-02-09T12:46:04.381Z,3.33
2023-02-09T12:49:12.429Z,3.36
2023-02-09T12:52:19.381Z,3.36
2023-02-09T12:55:27.335Z,3.33
2023-02-09T12:58:34.815Z,3.39
2023-02-09T13:01:42.134Z,3.46
2023-02-09T13:04:49.766Z,3.58
2023-02-09T13:07:57.211Z,3.62
2023-02-09T13:11:04.761Z,3.71
2023-02-09T13:14:12.578Z,3.72
2023-02-09T13:17:20.094Z,3.79
2023-02-09T13:20:27.436Z,3.79
2023-02-09T13:23:35.227Z,3.75
2023-02-09T13:26:42.595Z,3.65
2023-02-09T13:29:49.875Z,3.60
2023-02-09T13:32:57.635Z,3.53
2023-02-09T13:36:08.907Z,3.46
2023-02-09T13:39:08.221Z,3.43
2023-02-09T13:42:15.568Z,3.40
2023-02-09T13:45:23.020Z,3.42
2023-02-09T13:48:30.887Z,3.40
2023-02-09T13:51:38.195Z,3.44
2023-02-09T13:54:45.580Z,3.44
2023-02-09T13:57:53.206Z,3.47
2023-02-09T14:01:01.370Z,3.47
2023-02-09T14:04:08.989Z,3.50
2023-02-09T14:07:16.510Z,3.49
2023-02-09T14:10:24.404Z,3.47
2023-02-09T14:13:31.664Z,3.44
2023-02-09T14:16:52.602Z,3.43
2023-02-09T14:19:44.645Z,3.40
2023-02-09T14:22:51.577Z,3.36
2023-02-09T14:25:59.520Z,3.34
2023-02-09T14:29:06.773Z,3.25
2023-02-09T14:32:17.150Z,3.20
2023-02-09T14:35:17.791Z,3.13
2023-02-09T14:38:25.149Z,3.06
2023-02-09T14:41:32.552Z,3.00
2023-02-09T14:44:40.441Z,2.92
2023-02-09T14:47:48.153Z,2.91
2023-02-09T14:50:55.534Z,2.85
2023-02-09T14:54:02.837Z,2.82
2023-02-09T14:57:10.445Z,2.76
2023-02-09T15:00:17.329Z,2.73
2023-02-09T15:03:25.095Z,2.66
2023-02-09T15:06:33.136Z,2.58
2023-02-09T15:09:40.338Z,2.49
2023-02-09T15:12:48.462Z,2.44
2023-02-09T15:15:56.641Z,2.40
2023-02-09T15:19:03.670Z,2.34
2023-02-09T15:22:11.500Z,2.28
2023-02-09T15:25:19.013Z,2.27
2023-02-09T15:28:26.618Z,2.23
2023-02-09T15:31:34.328Z,2.17
2023-02-09T15:34:41.848Z,2.13
2023-02-09T15:37:49.336Z,2.09
2023-02-09T15:40:56.702Z,2.02
2023-02-09T15:44:04.495Z,1.97
2023-02-09T15:47:11.622Z,1.97
2023-02-09T15:50:19.504Z,1.97
2023-02-09T15:53:27.248Z,1.90
2023-02-09T15:56:34.156Z,1.85
2023-02-09T15:59:41.901Z,1.78
2023-02-09T16:02:49.498Z,1.72
2023-02-09T16:05:56.967Z,1.68
2023-02-09T16:09:04.833Z,1.61
2023-02-09T16:12:12.573Z,1.55
2023-02-09T16:15:19.967Z,1.50
2023-02-09T16:18:28.048Z,1.42
2023-02-09T16:21:35.368Z,1.39
2023-02-09T16:24:42.549Z,1.34
2023-02-09T16:27:50.122Z,1.34
2023-02-09T16:30:57.942Z,1.28
2023-02-09T16:34:05.306Z,1.26
2023-02-09T16:37:12.660Z,1.16
2023-02-09T16:40:20.144Z,1.08
2023-02-09T16:43:27.382Z,1.01
2023-02-09T16:46:34.601Z,1.01
2023-02-09T16:49:41.942Z,0.97
2023-02-09T16:52:48.945Z,0.92
2023-02-09T16:55:56.682Z,0.83
2023-02-09T16:59:03.957Z,0.78
2023-02-09T17:02:10.987Z,0.75
2023-02-09T17:05:18.849Z,0.62
2023-02-09T17:08:26.118Z,0.53
2023-02-09T17:11:33.250Z,0.51
2023-02-09T17:14:40.931Z,0.48
2023-02-09T17:17:47.894Z,0.41
2023-02-09T17:20:55.883Z,0.30
2023-02-09T17:24:03.672Z,0.20
2023-02-09T17:27:10.629Z,0.09
2023-02-09T17:30:18.334Z,0.00
2023-02-09T17:33:26.057Z,-0.06
2023-02-09T17:36:33.270Z,-0.08
2023-02-09T17:39:40.924Z,-0.08
2023-02-09T17:42:48.220Z,-0.06
2023-02-09T17:45:55.535Z,0.00
2023-02-09T17:49:03.218Z,0.07
2023-02-09T17:52:10.518Z,0.18
2023-02-09T17:55:17.992Z,0.24
2023-02-09T17:58:25.014Z,0.25
2023-02-09T18:01:32.806Z,0.28
2023-02-09T18:04:40.286Z,0.24
2023-02-09T18:07:47.329Z,0.21
2023-02-09T18:10:55.236Z,0.16
2023-02-09T18:14:02.480Z,0.09
2023-02-09T18:17:10.249Z,0.10
2023-02-09T18:20:17.553Z,0.05
2023-02-09T18:23:24.693Z,-0.06
2023-02-09T18:26:31.995Z,-0.18
2023-02-09T18:29:39.678Z,-0.30
2023-02-09T18:32:46.838Z,-0.41
2023-02-09T18:35:54.375Z,-0.41
2023-02-09T18:39:01.825Z,-0.37
2023-02-09T18:42:09.372Z,-0.41
2023-02-09T18:45:17.293Z,-0.33
2023-02-09T18:48:25.464Z,-0.16
2023-02-09T18:51:32.556Z,0.02
2023-02-09T18:54:40.757Z,0.10
2023-02-09T18:57:47.644Z,0.30
2023-02-09T19:00:55.576Z,0.52
2023-02-09T19:04:03.378Z,0.72
2023-02-09T19:07:10.290Z,0.85
2023-02-09T19:10:17.953Z,1.00
2023-02-09T19:13:25.535Z,1.08
2023-02-09T19:16:32.627Z,1.18
2023-02-09T19:19:40.195Z,1.26
2023-02-09T19:22:47.723Z,1.28
2023-02-09T19:25:55.255Z,1.36
2023-02-09T19:29:02.865Z,1.42
2023-02-09T19:32:10.150Z,1.40
2023-02-09T19:35:17.535Z,1.43
2023-02-09T19:38:24.948Z,1.37
2023-02-09T19:41:32.449Z,1.36
2023-02-09T19:44:39.760Z,1.32
2023-02-09T19:47:46.943Z,1.28
2023-02-09T19:50:54.411Z,1.29
2023-02-09T19:54:01.920Z,1.33
2023-02-09T19:57:09.617Z,1.34
2023-02-09T20:00:17.539Z,1.39
2023-02-09T20:03:24.780Z,1.43
2023-02-09T20:06:32.268Z,1.47
2023-02-09T20:09:40.135Z,1.50
2023-02-09T20:12:47.514Z,1.54
2023-02-09T20:15:54.666Z,1.54
2023-02-09T20:19:02.069Z,1.54
2023-02-09T20:22:09.197Z,1.60
2023-02-09T20:25:16.720Z,1.68
2023-02-09T20:28:24.513Z,1.68
2023-02-09T20:31:31.601Z,1.75
2023-02-09T20:34:39.267Z,1.79
2023-02-09T20:37:47.122Z,1.82
2023-02-09T20:40:54.075Z,1.87
2023-02-09T20:44:01.721Z,1.93
2023-02-09T20:47:08.936Z,2.01
2023-02-09T20:50:16.249Z,2.09
2023-02-09T20:53:23.954Z,2.15
2023-02-09T20:56:31.114Z,2.16
2023-02-09T20:59:38.686Z,2.17
2023-02-09T21:02:46.366Z,2.19
2023-02-09T21:05:53.895Z,2.17
2023-02-09T21:09:01.286Z,2.17
2023-02-09T21:12:08.439Z,2.16
2023-02-09T21:15:15.904Z,2.15
2023-02-09T21:18:23.086Z,2.16
2023-02-09T21:21:30.279Z,2.15
2023-02-09T21:24:37.943Z,2.15
2023-02-09T21:27:44.737Z,2.13
2023-02-09T21:30:52.185Z,2.13
2023-02-09T21:33:59.678Z,2.12
2023-02-09T21:37:06.457Z,2.12
2023-02-09T21:40:13.993Z,2.12
2023-02-09T21:43:22.112Z,2.12
2023-02-09T21:46:29.168Z,2.13
2023-02-09T21:49:37.063Z,2.13
2023-02-09T21:52:44.642Z,2.15
2023-02-09T21:55:51.536Z,2.13
2023-02-09T21:58:59.182Z,2.17
2023-02-09T22:02:06.331Z,2.16
2023-02-09T22:05:13.507Z,2.16
2023-02-09T22:08:20.943Z,2.15
2023-02-09T22:11:28.083Z,2.15
2023-02-09T22:14:35.357Z,2.16
2023-02-09T22:17:43.020Z,2.15
2023-02-09T22:20:50.274Z,2.17
2023-02-09T22:23:57.804Z,2.15
2023-02-09T22:27:05.782Z,2.12
2023-02-09T22:30:13.042Z,2.09
2023-02-09T22:33:20.346Z,2.10
2023-02-09T22:36:27.641Z,2.09
2023-02-09T22:39:35.545Z,2.08
2023-02-09T22:42:42.756Z,2.08
2023-02-09T22:45:50.196Z,2.04
2023-02-09T22:48:58.391Z,2.06
2023-02-09T22:52:05.678Z,2.06
2023-02-09T22:55:13.061Z,2.04
2023-02-09T22:57:35.316Z,2.06
2023-02-09T23:00:42.019Z,2.01
2023-02-09T23:03:49.707Z,2.04
2023-02-09T23:06:57.248Z,2.04
2023-02-09T23:10:04.372Z,2.06
2023-02-09T23:13:12.095Z,2.06
2023-02-09T23:16:19.706Z,2.02
2023-02-09T23:19:27.091Z,2.02
2023-02-09T23:22:34.869Z,2.04
2023-02-09T23:25:42.155Z,2.08
2023-02-09T23:28:49.649Z,2.08
2023-02-09T23:31:57.391Z,2.08
2023-02-09T23:35:04.833Z,2.04
2023-02-09T23:38:12.132Z,2.04
2023-02-09T23:41:20.339Z,2.04
2023-02-09T23:44:27.851Z,2.02
2023-02-09T23:47:35.117Z,2.01
2023-02-09T23:50:42.332Z,2.01
2023-02-09T23:53:49.665Z,2.02
2023-02-09T23:56:57.262Z,2.02
